createdAt,value
2023-03-22T00:01:14.623Z,80.96
2023-03-22T00:03:42.145Z,81.76
2023-03-22T00:06:09.274Z,81.40
2023-03-22T00:08:36.029Z,79.01
2023-03-22T00:11:03.398Z,78.98
2023-03-22T00:13:30.031Z,78.24
2023-03-22T00:15:56.587Z,78.18
2023-03-22T00:18:23.748Z,77.47
2023-03-22T00:20:52.337Z,79.17
2023-03-22T00:23:19.640Z,79.21
2023-03-22T00:25:46.369Z,79.62
2023-03-22T00:28:13.665Z,79.52
2023-03-22T00:30:40.643Z,78.92
2023-03-22T00:33:07.493Z,78.23
2023-03-22T00:35:34.066Z,78.12
2023-03-22T00:38:00.537Z,78.09
2023-03-22T00:40:27.056Z,77.95
2023-03-22T00:42:53.549Z,77.59
2023-03-22T00:45:20.032Z,78.64
2023-03-22T00:47:46.574Z,79.34
2023-03-22T00:50:13.065Z,79.92
2023-03-22T00:52:39.528Z,78.07
2023-03-22T00:55:06.325Z,79.37
2023-03-22T00:57:32.796Z,78.27
2023-03-22T00:59:59.329Z,79.42
2023-03-22T01:02:25.820Z,79.06
2023-03-22T01:04:52.283Z,80.33
2023-03-22T01:07:18.731Z,80.15
2023-03-22T01:09:45.502Z,79.92
2023-03-22T01:12:12.345Z,81.60
2023-03-22T01:14:39.288Z,80.55
2023-03-22T01:17:06.588Z,79.90
2023-03-22T01:19:33.491Z,79.85
2023-03-22T01:22:00.091Z,78.61
2023-03-22T01:24:26.598Z,78.72
2023-03-22T01:26:53.075Z,77.94
2023-03-22T01:29:19.540Z,78.19
2023-03-22T01:31:46.010Z,78.51
2023-03-22T01:34:12.453Z,78.18
2023-03-22T01:36:38.908Z,78.41
2023-03-22T01:39:05.385Z,78.56
2023-03-22T01:41:31.882Z,79.35
2023-03-22T01:44:13.647Z,79.06
2023-03-22T01:46:42.256Z,78.31
2023-03-22T01:49:33.963Z,78.65
2023-03-22T01:52:08.207Z,78.87
2023-03-22T01:54:45.181Z,79.75
2023-03-22T01:57:12.382Z,79.17
2023-03-22T01:59:40.744Z,78.67
2023-03-22T02:02:07.743Z,79.30
2023-03-22T02:04:36.557Z,79.31
2023-03-22T02:07:07.456Z,79.37
2023-03-22T02:09:33.895Z,79.44
2023-03-22T02:12:40.875Z,80.27
2023-03-22T02:15:24.778Z,80.57
2023-03-22T02:17:51.211Z,79.12
2023-03-22T02:20:33.438Z,80.44
2023-03-22T02:23:05.993Z,82.80
2023-03-22T02:25:56.916Z,83.43
2023-03-22T02:28:23.336Z,82.89
2023-03-22T02:30:55.525Z,81.98
2023-03-22T02:33:34.078Z,81.01
2023-03-22T02:36:24.884Z,79.45
2023-03-22T02:39:18.738Z,79.58
2023-03-22T02:41:57.304Z,79.01
2023-03-22T02:44:41.933Z,79.56
2023-03-22T02:47:32.875Z,79.39
2023-03-22T02:50:09.916Z,79.56
2023-03-22T02:52:54.328Z,79.61
2023-03-22T02:55:29.234Z,79.94
2023-03-22T02:58:03.262Z,80.05
2023-03-22T03:00:31.232Z,79.65
2023-03-22T03:03:04.791Z,80.39
2023-03-22T03:05:33.304Z,80.76
2023-03-22T03:08:02.518Z,82.67
2023-03-22T03:10:29.463Z,83.72
2023-03-22T03:12:55.940Z,84.00
2023-03-22T03:15:22.928Z,85.64
2023-03-22T03:18:04.659Z,86.24
2023-03-22T03:20:56.710Z,86.26
2023-03-22T03:23:38.149Z,87.85
2023-03-22T03:26:29.935Z,85.88
2023-03-22T03:29:09.924Z,84.14
2023-03-22T03:31:44.888Z,83.10
2023-03-22T03:34:17.568Z,83.29
2023-03-22T03:36:53.825Z,85.25
2023-03-22T03:39:21.952Z,86.28
2023-03-22T03:41:52.144Z,83.90
2023-03-22T03:44:19.461Z,83.26
2023-03-22T03:46:46.588Z,82.63
2023-03-22T03:49:15.763Z,81.58
2023-03-22T03:51:54.471Z,81.99
2023-03-22T03:54:21.929Z,81.81
2023-03-22T03:56:48.799Z,81.16
2023-03-22T03:59:16.945Z,81.48
2023-03-22T04:01:44.899Z,82.43
2023-03-22T04:04:11.379Z,81.53
2023-03-22T04:06:37.836Z,81.49
2023-03-22T04:09:04.331Z,81.90
2023-03-22T04:11:30.783Z,81.78
2023-03-22T04:13:57.245Z,82.28
2023-03-22T04:16:23.869Z,82.23
2023-03-22T04:18:50.656Z,82.25
2023-03-22T04:21:17.276Z,82.63
2023-03-22T04:23:43.711Z,83.96
2023-03-22T04:26:10.132Z,83.69
2023-03-22T04:28:36.607Z,84.45
2023-03-22T04:31:03.142Z,83.69
2023-03-22T04:33:29.638Z,84.57
2023-03-22T04:35:56.112Z,85.20
2023-03-22T04:38:23.136Z,85.31
2023-03-22T04:40:49.585Z,85.01
2023-03-22T04:43:16.080Z,83.58
2023-03-22T04:45:42.576Z,82.96
2023-03-22T04:48:09.112Z,83.26
2023-03-22T04:50:35.609Z,82.97
2023-03-22T04:53:02.081Z,82.59
2023-03-22T04:55:28.540Z,81.71
2023-03-22T04:57:55.020Z,81.77
2023-03-22T05:00:21.613Z,82.22
2023-03-22T05:02:48.126Z,82.18
2023-03-22T05:05:14.704Z,81.59
2023-03-22T05:07:41.154Z,82.18
2023-03-22T05:10:08.216Z,82.27
2023-03-22T05:12:34.679Z,82.94
2023-03-22T05:15:01.155Z,83.09
2023-03-22T05:17:27.666Z,83.11
2023-03-22T05:19:54.168Z,82.68
2023-03-22T05:22:20.632Z,82.75
2023-03-22T05:24:47.053Z,81.71
2023-03-22T05:27:13.532Z,81.12
2023-03-22T05:29:40.350Z,81.15
2023-03-22T05:32:06.845Z,82.00
2023-03-22T05:34:33.372Z,82.09
2023-03-22T05:36:59.783Z,81.41
2023-03-22T05:39:26.217Z,81.62
2023-03-22T05:41:52.744Z,81.09
2023-03-22T05:44:19.217Z,81.36
2023-03-22T05:46:45.650Z,80.63
2023-03-22T05:49:12.322Z,79.06
2023-03-22T05:51:38.789Z,77.19
2023-03-22T05:54:05.369Z,73.97
2023-03-22T05:56:32.066Z,70.54
2023-03-22T05:58:58.546Z,69.74
2023-03-22T06:01:24.986Z,70.00
2023-03-22T06:03:51.451Z,70.94
2023-03-22T06:06:17.932Z,71.06
2023-03-22T06:08:44.387Z,67.66
2023-03-22T06:11:11.316Z,67.93
2023-03-22T06:13:38.087Z,64.89
2023-03-22T06:16:05.131Z,62.47
2023-03-22T06:18:32.458Z,63.76
2023-03-22T06:20:59.126Z,65.15
2023-03-22T06:23:25.684Z,65.11
2023-03-22T06:25:52.323Z,65.41
2023-03-22T06:28:18.797Z,67.89
2023-03-22T06:30:45.326Z,69.03
2023-03-22T06:33:12.749Z,68.92
2023-03-22T06:35:39.242Z,69.77
2023-03-22T06:38:05.751Z,68.05
2023-03-22T06:40:32.235Z,68.89
2023-03-22T06:43:00.443Z,68.57
2023-03-22T06:45:29.561Z,66.89
2023-03-22T06:47:56.078Z,66.29
2023-03-22T06:50:22.584Z,67.23
2023-03-22T06:52:49.068Z,67.55
2023-03-22T06:55:15.577Z,66.56
2023-03-22T06:57:42.027Z,66.67
2023-03-22T07:00:09.235Z,66.36
2023-03-22T07:02:35.686Z,66.78
2023-03-22T07:05:02.167Z,64.30
2023-03-22T07:07:28.626Z,64.83
2023-03-22T07:09:55.306Z,64.47
2023-03-22T07:12:21.772Z,63.14
2023-03-22T07:14:48.747Z,63.56
2023-03-22T07:17:15.209Z,63.16
2023-03-22T07:19:41.629Z,62.50
2023-03-22T07:22:08.117Z,63.01
2023-03-22T07:24:36.039Z,63.83
2023-03-22T07:27:03.687Z,63.81
2023-03-22T07:29:30.292Z,65.60
2023-03-22T07:31:56.801Z,64.50
2023-03-22T07:34:23.351Z,62.74
2023-03-22T07:36:50.076Z,60.62
2023-03-22T07:39:16.547Z,59.58
2023-03-22T07:41:42.974Z,59.15
2023-03-22T07:44:17.783Z,59.28
2023-03-22T07:46:44.833Z,60.65
2023-03-22T07:49:11.487Z,59.35
2023-03-22T07:51:38.049Z,59.71
2023-03-22T07:54:07.518Z,59.87
2023-03-22T07:56:34.685Z,60.61
2023-03-22T07:59:01.370Z,62.32
2023-03-22T08:01:27.848Z,62.49
2023-03-22T08:03:54.325Z,64.66
2023-03-22T08:06:20.797Z,66.06
2023-03-22T08:08:47.588Z,67.50
2023-03-22T08:11:14.137Z,67.76
2023-03-22T08:13:40.734Z,68.84
2023-03-22T08:16:07.380Z,68.58
2023-03-22T08:18:33.907Z,68.88
2023-03-22T08:21:00.761Z,69.95
2023-03-22T08:23:40.405Z,69.19
2023-03-22T08:26:08.985Z,69.69
2023-03-22T08:28:35.526Z,68.87
2023-03-22T08:31:02.019Z,67.65
2023-03-22T08:33:28.470Z,66.30
2023-03-22T08:36:05.056Z,65.87
2023-03-22T08:38:31.540Z,66.72
2023-03-22T08:40:57.974Z,67.86
2023-03-22T08:43:24.470Z,67.71
2023-03-22T08:45:51.046Z,66.51
2023-03-22T08:48:17.566Z,64.19
2023-03-22T08:50:44.216Z,63.00
2023-03-22T08:53:10.761Z,60.33
2023-03-22T08:55:37.936Z,58.25
2023-03-22T08:58:04.517Z,58.97
2023-03-22T09:00:45.722Z,57.16
2023-03-22T09:03:14.507Z,55.10
2023-03-22T09:05:41.470Z,55.75
2023-03-22T09:08:08.682Z,53.14
2023-03-22T09:10:37.748Z,55.75
2023-03-22T09:13:04.196Z,55.00
2023-03-22T09:15:30.669Z,55.37
2023-03-22T09:17:57.160Z,52.33
2023-03-22T09:20:23.751Z,49.31
2023-03-22T09:22:50.244Z,48.76
2023-03-22T09:25:16.840Z,47.47
2023-03-22T09:27:43.357Z,47.27
2023-03-22T09:30:10.362Z,47.67
2023-03-22T09:32:36.848Z,46.84
2023-03-22T09:35:03.398Z,49.63
2023-03-22T09:37:29.831Z,49.77
2023-03-22T09:39:57.236Z,46.67
2023-03-22T09:42:26.378Z,45.49
2023-03-22T09:44:55.678Z,44.22
2023-03-22T09:47:43.957Z,44.50
2023-03-22T09:50:25.942Z,43.11
2023-03-22T09:52:53.499Z,42.20
2023-03-22T09:55:53.908Z,43.38
2023-03-22T09:58:23.479Z,43.98
2023-03-22T10:01:00.033Z,43.43
2023-03-22T10:03:44.984Z,42.19
2023-03-22T10:06:26.887Z,38.00
2023-03-22T10:09:18.697Z,39.30
2023-03-22T10:12:15.683Z,38.88
2023-03-22T10:14:58.676Z,38.59
2023-03-22T10:17:29.423Z,39.14
2023-03-22T10:20:23.670Z,39.80
2023-03-22T10:22:53.387Z,40.90
2023-03-22T10:25:25.270Z,42.74
2023-03-22T10:27:52.576Z,42.46
2023-03-22T10:30:25.312Z,42.07
2023-03-22T10:33:03.625Z,49.04
2023-03-22T10:35:32.067Z,51.71
2023-03-22T10:38:02.092Z,47.92
2023-03-22T10:40:35.254Z,48.47
2023-03-22T10:43:07.897Z,46.95
2023-03-22T10:45:36.091Z,46.20
2023-03-22T10:48:05.921Z,45.35
2023-03-22T10:50:38.105Z,46.69
2023-03-22T10:53:04.499Z,47.63
2023-03-22T10:55:31.251Z,47.79
2023-03-22T10:58:20.738Z,46.89
2023-03-22T11:00:58.850Z,47.73
2023-03-22T11:03:39.277Z,48.47
2023-03-22T11:06:10.592Z,48.92
2023-03-22T11:08:41.787Z,48.85
2023-03-22T11:11:15.816Z,48.53
2023-03-22T11:13:42.393Z,48.47
2023-03-22T11:16:08.862Z,47.74
2023-03-22T11:18:35.417Z,48.20
2023-03-22T11:21:09.656Z,48.53
2023-03-22T11:23:38.923Z,48.91
2023-03-22T11:26:09.823Z,48.65
2023-03-22T11:28:50.046Z,49.62
2023-03-22T11:31:20.973Z,50.13
2023-03-22T11:33:55.624Z,49.22
2023-03-22T11:36:22.318Z,49.01
2023-03-22T11:38:56.276Z,49.59
2023-03-22T11:41:22.716Z,48.75
2023-03-22T11:43:54.168Z,48.76
2023-03-22T11:46:21.561Z,48.92
2023-03-22T11:48:51.016Z,48.79
2023-03-22T11:51:28.026Z,48.29
2023-03-22T11:54:04.463Z,48.92
2023-03-22T11:56:31.064Z,48.42
2023-03-22T11:59:02.016Z,51.41
2023-03-22T12:01:40.681Z,54.51
2023-03-22T12:04:16.138Z,59.39
2023-03-22T12:06:43.403Z,57.44
2023-03-22T12:09:31.835Z,61.56
2023-03-22T12:12:01.939Z,65.44
2023-03-22T12:14:33.498Z,65.78
2023-03-22T12:17:06.060Z,64.08
2023-03-22T12:20:16.178Z,64.27
2023-03-22T12:22:48.015Z,62.42
2023-03-22T12:25:29.079Z,67.81
2023-03-22T12:28:03.119Z,68.02
2023-03-22T12:30:33.678Z,65.95
2023-03-22T12:33:11.329Z,65.57
2023-03-22T12:35:44.134Z,66.58
2023-03-22T12:38:30.913Z,66.72
2023-03-22T12:41:03.742Z,64.88
2023-03-22T12:43:44.433Z,62.86
2023-03-22T12:46:18.854Z,64.38
2023-03-22T12:48:53.563Z,65.22
2023-03-22T12:51:20.065Z,65.30
2023-03-22T12:53:53.277Z,64.82
2023-03-22T12:56:27.098Z,62.97
2023-03-22T12:58:57.969Z,62.58
2023-03-22T13:01:37.583Z,61.47
2023-03-22T13:04:22.514Z,61.12
2023-03-22T13:06:48.913Z,62.41
2023-03-22T13:09:18.547Z,64.03
2023-03-22T13:12:08.931Z,62.98
2023-03-22T13:14:50.451Z,63.75
2023-03-22T13:17:23.267Z,61.03
2023-03-22T13:20:22.071Z,58.49
2023-03-22T13:22:48.379Z,59.49
2023-03-22T13:25:17.568Z,59.92
2023-03-22T13:27:55.833Z,59.98
2023-03-22T13:30:27.412Z,57.81
2023-03-22T13:33:07.461Z,57.05
2023-03-22T13:35:44.793Z,56.92
2023-03-22T13:38:42.573Z,56.85
2023-03-22T13:41:23.977Z,56.89
2023-03-22T13:44:03.306Z,56.97
2023-03-22T13:46:36.919Z,56.60
2023-03-22T13:49:03.547Z,58.62
2023-03-22T13:51:32.041Z,60.30
2023-03-22T13:54:08.922Z,62.75
2023-03-22T13:56:41.357Z,64.36
2023-03-22T13:59:13.683Z,67.19
2023-03-22T14:01:47.327Z,68.72
2023-03-22T14:04:17.902Z,68.89
2023-03-22T14:06:55.505Z,68.16
2023-03-22T14:09:34.530Z,68.46
2023-03-22T14:12:11.546Z,67.69
2023-03-22T14:14:43.116Z,67.26
2023-03-22T14:17:35.636Z,69.66
2023-03-22T14:20:03.929Z,70.17
